Coats, Kansas
Current Conditions -  °F | °C
As of 2:35 AM on Sunday 23 Nov 2014 (Local Time) from KPTT Reporting Station
Overcast Overcast  
Wind Chill: 50°   Ceiling: 1300
Heat Index: 50°   Visibility: 10mi
Dew Point: 48°   Wind: 15mph
Humidity: 94%   Direction: 180°S
Pressure: 29.47"   Gusts: 21mph
Location:  37.51°N, 98.82°W
Report Text: KPTT 230835Z AUTO 18013G18KT 10SM SCT007 OVC013 10/09 A2947 RMK AO2
Loading
Personal Weather Stations






























Interactive Weather Map New forecast layout! Learn more

10-Day Weather Forecast

Advertisements
Track Severe Weather on mobile